createdAt,value
2022-11-25T00:02:03.033Z,80.75
2022-11-25T00:04:35.833Z,80.45
2022-11-25T00:07:03.829Z,81.02
2022-11-25T00:09:30.956Z,80.68
2022-11-25T00:11:58.333Z,80.56
2022-11-25T00:14:28.095Z,80.98
2022-11-25T00:16:55.402Z,80.43
2022-11-25T00:19:25.317Z,80.34
2022-11-25T00:21:52.336Z,81.07
2022-11-25T00:24:19.581Z,80.66
2022-11-25T00:26:47.381Z,80.54
2022-11-25T00:29:15.071Z,80.56
2022-11-25T00:31:42.594Z,80.43
2022-11-25T00:34:12.757Z,80.43
2022-11-25T00:36:40.233Z,81.26
2022-11-25T00:39:10.416Z,80.87
2022-11-25T00:41:40.811Z,81.47
2022-11-25T00:44:13.140Z,81.25
2022-11-25T00:46:40.599Z,79.98
2022-11-25T00:49:07.934Z,79.80
2022-11-25T00:51:35.164Z,81.24
2022-11-25T00:54:02.342Z,80.11
2022-11-25T00:56:30.717Z,79.79
2022-11-25T00:58:58.176Z,79.50
2022-11-25T01:01:28.969Z,79.17
2022-11-25T01:03:56.361Z,79.76
2022-11-25T01:06:24.974Z,79.74
2022-11-25T01:08:52.788Z,79.20
2022-11-25T01:11:21.142Z,79.21
2022-11-25T01:13:48.429Z,79.61
2022-11-25T01:16:18.287Z,79.35
2022-11-25T01:18:46.532Z,79.00
2022-11-25T01:21:14.961Z,79.22
2022-11-25T01:23:43.076Z,80.15
2022-11-25T01:26:12.322Z,79.49
2022-11-25T01:28:39.469Z,79.91
2022-11-25T01:31:32.390Z,79.53
2022-11-25T01:34:00.947Z,79.22
2022-11-25T01:36:29.546Z,80.44
2022-11-25T01:38:57.912Z,79.98
2022-11-25T01:41:29.074Z,80.54
2022-11-25T01:43:59.405Z,80.35
2022-11-25T01:46:28.440Z,80.92
2022-11-25T01:48:57.872Z,81.11
2022-11-25T01:51:28.600Z,80.31
2022-11-25T01:53:59.478Z,80.61
2022-11-25T01:56:29.501Z,80.69
2022-11-25T01:58:59.225Z,80.38
2022-11-25T02:01:26.876Z,80.82
2022-11-25T02:03:56.868Z,80.56
2022-11-25T02:13:03.404Z,79.70
2022-11-25T02:15:32.072Z,79.59
2022-11-25T02:17:59.203Z,79.43
2022-11-25T02:20:30.640Z,79.59
2022-11-25T02:22:58.819Z,79.65
2022-11-25T02:28:45.060Z,80.45
2022-11-25T02:31:12.367Z,80.97
2022-11-25T02:33:39.792Z,81.59
2022-11-25T02:36:16.224Z,80.98
2022-11-25T02:38:45.702Z,80.50
2022-11-25T02:41:15.242Z,80.12
2022-11-25T02:43:42.760Z,80.20
2022-11-25T02:46:11.504Z,80.42
2022-11-25T02:49:07.443Z,80.91
2022-11-25T03:11:19.398Z,81.55
2022-11-25T03:13:46.678Z,81.37
2022-11-25T03:16:13.880Z,81.04
2022-11-25T03:18:41.498Z,81.58
2022-11-25T03:21:09.287Z,82.32
2022-11-25T03:23:36.778Z,81.79
2022-11-25T03:26:07.413Z,81.11
2022-11-25T03:28:34.864Z,80.97
2022-11-25T03:31:02.376Z,80.98
2022-11-25T03:33:29.775Z,81.89
2022-11-25T03:35:57.171Z,81.80
2022-11-25T03:38:26.937Z,81.22
2022-11-25T03:40:54.489Z,81.31
2022-11-25T03:43:23.235Z,82.10
2022-11-25T03:45:50.858Z,82.18
2022-11-25T03:48:22.322Z,81.50
2022-11-25T03:50:49.963Z,82.71
2022-11-25T03:53:18.138Z,82.42
2022-11-25T03:55:48.990Z,82.43
2022-11-25T03:58:16.327Z,82.74
2022-11-25T04:00:43.512Z,82.71
2022-11-25T04:03:10.915Z,81.95
2022-11-25T04:05:38.127Z,82.64
2022-11-25T04:08:05.517Z,82.46
2022-11-25T04:10:33.100Z,81.87
2022-11-25T04:13:00.628Z,82.09
2022-11-25T04:15:29.176Z,82.60
2022-11-25T04:18:04.068Z,83.38
2022-11-25T04:20:37.307Z,82.52
2022-11-25T04:23:14.171Z,83.21
2022-11-25T04:25:41.338Z,83.38
2022-11-25T04:28:08.672Z,83.12
2022-11-25T04:30:36.136Z,83.44
2022-11-25T04:33:06.784Z,82.96
2022-11-25T04:35:34.068Z,82.51
2022-11-25T04:38:01.422Z,82.57
2022-11-25T04:40:28.718Z,82.25
2022-11-25T04:43:02.398Z,82.30
2022-11-25T04:45:58.664Z,81.71
2022-11-25T04:48:23.228Z,82.08
2022-11-25T04:50:50.548Z,81.94
2022-11-25T04:53:21.023Z,82.27
2022-11-25T04:55:48.437Z,82.52
2022-11-25T04:58:35.827Z,82.83
2022-11-25T05:01:03.223Z,82.95
2022-11-25T05:03:30.847Z,82.37
2022-11-25T05:05:58.225Z,81.99
2022-11-25T05:12:21.944Z,82.59
2022-11-25T05:14:56.577Z,82.83
2022-11-25T05:17:25.180Z,82.72
2022-11-25T05:19:52.918Z,82.58
2022-11-25T05:22:21.582Z,82.41
2022-11-25T05:24:48.993Z,82.43
2022-11-25T05:27:16.714Z,82.64
2022-11-25T05:29:44.009Z,83.39
2022-11-25T05:32:14.587Z,82.75
2022-11-25T05:34:41.784Z,82.86
2022-11-25T05:37:13.881Z,82.55
2022-11-25T05:39:40.964Z,82.92
2022-11-25T05:42:08.914Z,82.60
2022-11-25T05:44:36.280Z,83.45
2022-11-25T05:47:03.829Z,83.61
2022-11-25T05:49:30.994Z,83.36
2022-11-25T05:51:58.099Z,82.57
2022-11-25T05:54:28.382Z,82.28
2022-11-25T05:56:58.921Z,82.82
2022-11-25T05:59:26.085Z,83.68
2022-11-25T06:08:29.772Z,83.58
2022-11-25T06:10:56.734Z,83.96
2022-11-25T06:13:24.082Z,83.78
2022-11-25T06:15:51.200Z,83.61
2022-11-25T06:18:19.024Z,83.62
2022-11-25T06:20:46.309Z,84.24
2022-11-25T06:23:15.582Z,83.63
2022-11-25T06:25:47.883Z,84.20
2022-11-25T06:28:28.674Z,84.37
2022-11-25T06:30:55.971Z,83.48
2022-11-25T06:33:23.080Z,83.54
2022-11-25T06:35:50.339Z,83.25
2022-11-25T06:38:17.937Z,83.53
2022-11-25T06:41:22.014Z,83.42
2022-11-25T06:43:49.144Z,83.86
2022-11-25T06:46:24.163Z,84.37
2022-11-25T06:48:52.029Z,83.70
2022-11-25T06:51:19.086Z,83.15
2022-11-25T06:53:46.570Z,83.02
2022-11-25T06:56:18.125Z,83.42
2022-11-25T06:58:45.855Z,84.00
2022-11-25T07:01:14.624Z,84.27
2022-11-25T07:03:42.683Z,84.17
2022-11-25T07:06:10.242Z,83.58
2022-11-25T07:08:39.945Z,84.40
2022-11-25T07:11:08.609Z,83.91
2022-11-25T07:13:38.694Z,83.38
2022-11-25T07:16:06.844Z,83.27
2022-11-25T07:18:35.129Z,83.24
2022-11-25T07:21:05.315Z,83.32
2022-11-25T07:23:32.491Z,83.74
2022-11-25T07:26:09.827Z,83.72
2022-11-25T07:28:37.225Z,84.36
2022-11-25T07:31:24.813Z,84.05
2022-11-25T07:33:56.395Z,83.29
2022-11-25T07:36:24.093Z,83.41
2022-11-25T07:38:51.163Z,83.50
2022-11-25T07:44:36.783Z,83.38
2022-11-25T07:47:03.956Z,84.19
2022-11-25T07:49:31.323Z,83.54
2022-11-25T07:52:00.184Z,83.50
2022-11-25T07:54:27.363Z,83.63
2022-11-25T07:56:54.896Z,83.91
2022-11-25T07:59:22.811Z,83.76
2022-11-25T08:01:51.227Z,83.57
2022-11-25T08:04:20.740Z,83.81
2022-11-25T08:06:49.183Z,83.55
2022-11-25T08:09:20.011Z,83.50
2022-11-25T08:11:47.787Z,83.62
2022-11-25T08:14:17.560Z,83.50
2022-11-25T08:16:47.033Z,83.92
2022-11-25T08:19:16.096Z,87.50
2022-11-25T08:21:43.292Z,88.56
2022-11-25T08:24:13.433Z,86.87
2022-11-25T08:26:43.369Z,88.98
2022-11-25T08:32:29.146Z,84.61
2022-11-25T08:34:57.481Z,82.75
2022-11-25T08:37:24.573Z,82.93
2022-11-25T08:39:53.210Z,82.73
2022-11-25T08:42:20.958Z,81.89
2022-11-25T08:44:52.399Z,82.06
2022-11-25T08:47:19.884Z,82.43
2022-11-25T08:49:47.815Z,82.55
2022-11-25T08:52:15.411Z,82.73
2022-11-25T08:54:47.439Z,82.78
2022-11-25T08:57:14.848Z,82.37
2022-11-25T08:59:42.127Z,82.18
2022-11-25T09:02:10.714Z,82.10
2022-11-25T09:04:39.089Z,82.20
2022-11-25T09:07:06.536Z,81.99
2022-11-25T09:09:34.415Z,81.74
2022-11-25T09:12:07.774Z,81.84
2022-11-25T09:14:35.356Z,81.88
2022-11-25T09:17:02.717Z,82.18
2022-11-25T09:19:29.905Z,82.07
2022-11-25T09:21:57.016Z,82.11
2022-11-25T09:24:24.364Z,81.66
2022-11-25T09:26:51.668Z,81.31
2022-11-25T09:29:18.725Z,82.08
2022-11-25T09:31:50.038Z,81.82
2022-11-25T09:34:20.379Z,82.41
2022-11-25T09:36:47.867Z,82.23
2022-11-25T09:39:15.379Z,82.23
2022-11-25T09:41:46.352Z,81.93
2022-11-25T09:44:25.832Z,81.70
2022-11-25T09:46:56.043Z,81.76
2022-11-25T09:49:23.624Z,81.94
2022-11-25T09:51:51.047Z,81.25
2022-11-25T09:54:18.619Z,80.87
2022-11-25T09:56:51.062Z,80.70
2022-11-25T09:59:21.364Z,80.57
2022-11-25T10:02:38.798Z,80.26
2022-11-25T10:05:10.456Z,80.34
2022-11-25T10:07:43.985Z,79.95
2022-11-25T10:10:20.138Z,79.48
2022-11-25T10:12:48.300Z,79.72
2022-11-25T10:15:19.564Z,79.28
2022-11-25T10:17:50.642Z,78.99
2022-11-25T10:20:21.013Z,79.24
2022-11-25T10:22:50.475Z,78.73
2022-11-25T10:25:20.905Z,78.45
2022-11-25T10:27:51.688Z,78.84
2022-11-25T10:30:23.923Z,78.93
2022-11-25T10:32:57.874Z,79.32
2022-11-25T10:35:31.283Z,79.06
2022-11-25T10:38:03.784Z,78.75
2022-11-25T10:40:30.943Z,78.23
2022-11-25T10:43:00.593Z,78.06
2022-11-25T10:45:34.024Z,77.91
2022-11-25T10:48:04.870Z,77.76
2022-11-25T10:50:35.284Z,77.17
2022-11-25T10:53:10.361Z,76.54
2022-11-25T10:55:37.587Z,76.72
2022-11-25T10:58:08.069Z,76.66
2022-11-25T11:00:37.346Z,76.46
2022-11-25T11:03:08.066Z,76.35
2022-11-25T11:05:46.661Z,76.22
2022-11-25T11:14:50.657Z,76.04
2022-11-25T11:17:20.830Z,76.41
2022-11-25T11:20:01.080Z,75.81
2022-11-25T11:22:28.305Z,74.32
2022-11-25T11:25:06.493Z,75.43
2022-11-25T11:27:37.354Z,75.54
2022-11-25T11:30:08.076Z,75.29
2022-11-25T11:32:37.250Z,74.97
2022-11-25T11:35:08.728Z,75.61
2022-11-25T11:37:38.988Z,75.75
2022-11-25T11:40:09.123Z,75.62
2022-11-25T11:42:39.370Z,74.11
2022-11-25T11:45:07.615Z,74.45
2022-11-25T11:47:37.938Z,75.36
2022-11-25T11:50:17.891Z,74.30
2022-11-25T11:52:45.385Z,75.10
2022-11-25T11:55:15.796Z,73.91
2022-11-25T11:57:46.002Z,72.97
2022-11-25T12:00:14.570Z,74.75
2022-11-25T12:02:45.258Z,74.60
2022-11-25T12:05:12.817Z,76.88
2022-11-25T12:07:46.378Z,75.33
2022-11-25T12:10:15.759Z,73.44
2022-11-25T12:12:46.123Z,71.80
2022-11-25T12:18:35.837Z,69.49
2022-11-25T12:21:06.251Z,69.13
2022-11-25T12:23:36.839Z,69.42
2022-11-25T12:26:07.573Z,69.64
2022-11-25T12:28:42.148Z,69.53
2022-11-25T12:31:12.925Z,69.02
2022-11-25T12:33:43.442Z,69.78
2022-11-25T12:36:12.682Z,70.06
2022-11-25T12:38:42.899Z,69.35
2022-11-25T12:41:13.120Z,69.25
2022-11-25T12:43:43.915Z,68.41
2022-11-25T12:46:15.339Z,69.09
2022-11-25T12:48:43.761Z,70.05
2022-11-25T12:51:14.405Z,69.29
2022-11-25T12:53:51.120Z,70.68
2022-11-25T12:56:23.103Z,69.75
2022-11-25T12:58:53.486Z,68.89
2022-11-25T13:01:22.444Z,69.38
2022-11-25T13:03:52.749Z,69.53
2022-11-25T13:06:22.964Z,70.29
2022-11-25T13:08:51.769Z,69.91
2022-11-25T13:11:19.927Z,70.47
2022-11-25T13:13:51.982Z,70.22
2022-11-25T13:16:21.020Z,70.80
2022-11-25T13:18:48.972Z,69.80
2022-11-25T13:21:17.383Z,69.39
2022-11-25T13:24:23.705Z,69.55
2022-11-25T13:26:51.366Z,69.42
2022-11-25T13:29:19.602Z,70.05
2022-11-25T13:31:53.467Z,70.41
2022-11-25T13:34:28.808Z,69.05
2022-11-25T13:36:57.578Z,69.67
2022-11-25T13:39:25.575Z,70.17
2022-11-25T13:41:56.233Z,69.20
2022-11-25T13:44:35.816Z,68.71
2022-11-25T13:47:06.617Z,69.81
2022-11-25T13:53:23.416Z,68.52
2022-11-25T13:55:51.660Z,69.16
2022-11-25T13:58:22.011Z,68.64
2022-11-25T14:00:50.770Z,69.16
2022-11-25T14:03:19.401Z,69.53
2022-11-25T14:05:47.154Z,68.26
2022-11-25T14:08:17.654Z,68.38
2022-11-25T14:10:51.029Z,69.90
2022-11-25T14:13:24.012Z,69.80
2022-11-25T14:15:51.664Z,69.20
2022-11-25T14:18:53.149Z,69.67
2022-11-25T14:21:16.449Z,68.73
2022-11-25T14:23:47.513Z,69.20
2022-11-25T14:26:47.806Z,69.66
2022-11-25T14:29:10.726Z,69.11
2022-11-25T14:31:41.185Z,68.63
2022-11-25T14:34:11.265Z,68.93
2022-11-25T14:36:41.837Z,70.00
2022-11-25T14:39:15.924Z,70.19
2022-11-25T14:42:23.244Z,69.97
2022-11-25T14:44:51.486Z,69.08
2022-11-25T14:47:22.019Z,68.82
2022-11-25T14:50:11.803Z,69.36
2022-11-25T14:52:38.647Z,70.45
2022-11-25T14:55:07.271Z,69.29
2022-11-25T14:57:35.723Z,69.49
2022-11-25T15:00:05.970Z,69.93
2022-11-25T15:02:35.503Z,70.44
2022-11-25T15:05:04.382Z,71.34
2022-11-25T15:07:32.922Z,70.28
2022-11-25T15:10:00.242Z,69.56
2022-11-25T15:12:32.304Z,69.56
2022-11-25T15:15:00.759Z,70.31
2022-11-25T15:17:28.710Z,70.96
2022-11-25T15:19:57.240Z,71.38
2022-11-25T15:22:29.036Z,70.93
2022-11-25T15:25:08.095Z,70.98
2022-11-25T15:27:36.749Z,72.13
2022-11-25T15:30:18.977Z,71.36
2022-11-25T15:32:59.439Z,71.40
2022-11-25T15:35:27.399Z,71.31
2022-11-25T15:37:54.783Z,70.50
2022-11-25T15:40:30.676Z,71.04
2022-11-25T15:43:00.448Z,71.52
2022-11-25T15:45:30.583Z,73.01
2022-11-25T15:47:57.848Z,72.34
2022-11-25T15:50:26.401Z,72.48
2022-11-25T15:52:56.289Z,72.68
2022-11-25T15:55:26.431Z,72.71
2022-11-25T15:57:54.368Z,72.96
2022-11-25T16:00:23.509Z,73.49
2022-11-25T16:02:52.224Z,73.56
2022-11-25T16:05:27.259Z,73.66
2022-11-25T16:08:04.331Z,73.78
2022-11-25T16:13:21.836Z,73.72
2022-11-25T16:15:53.204Z,73.94
2022-11-25T16:18:39.695Z,73.06
2022-11-25T16:21:10.325Z,72.92
2022-11-25T16:23:39.332Z,72.72
2022-11-25T16:26:14.767Z,73.09
2022-11-25T16:28:43.147Z,73.45
2022-11-25T16:31:16.490Z,73.34
2022-11-25T16:33:46.369Z,73.99
2022-11-25T16:36:13.680Z,75.09
2022-11-25T16:38:42.516Z,73.99
2022-11-25T16:41:21.526Z,73.92
2022-11-25T16:43:48.960Z,74.29
2022-11-25T16:46:18.491Z,74.38
2022-11-25T16:48:51.987Z,74.22
2022-11-25T16:51:21.711Z,74.60
2022-11-25T16:53:49.035Z,74.79
2022-11-25T16:56:18.834Z,75.01
2022-11-25T16:58:46.455Z,75.24
2022-11-25T17:01:16.173Z,75.31
2022-11-25T17:04:21.923Z,75.52
2022-11-25T17:09:45.865Z,75.58
2022-11-25T17:12:17.363Z,75.81
2022-11-25T17:14:50.390Z,75.73
2022-11-25T17:17:28.259Z,75.80
2022-11-25T17:19:56.644Z,76.11
2022-11-25T17:22:25.571Z,76.33
2022-11-25T17:24:54.239Z,75.73
2022-11-25T17:27:25.409Z,76.08
2022-11-25T17:29:54.049Z,76.46
2022-11-25T17:32:21.618Z,75.81
2022-11-25T17:34:49.419Z,76.65
2022-11-25T17:37:18.978Z,76.08
2022-11-25T17:39:46.691Z,75.66
2022-11-25T17:42:16.439Z,75.82
2022-11-25T17:44:48.585Z,76.56
2022-11-25T17:47:18.848Z,76.48
2022-11-25T17:50:23.175Z,76.46
2022-11-25T17:52:51.087Z,77.52
2022-11-25T17:55:20.589Z,77.23
2022-11-25T17:57:51.131Z,77.32
2022-11-25T18:00:21.288Z,77.28
2022-11-25T18:02:50.106Z,76.40
2022-11-25T18:05:21.094Z,76.57
2022-11-25T18:07:49.101Z,76.58
2022-11-25T18:10:17.763Z,76.84
2022-11-25T18:12:46.979Z,77.76
2022-11-25T18:15:18.070Z,78.02
2022-11-25T18:17:45.433Z,77.64
2022-11-25T18:20:16.071Z,77.02
2022-11-25T18:22:45.537Z,77.56
2022-11-25T18:25:17.896Z,78.17
2022-11-25T18:27:45.862Z,77.24
2022-11-25T18:30:19.645Z,78.05
2022-11-25T18:32:51.772Z,77.69
2022-11-25T18:35:22.230Z,77.71
2022-11-25T18:37:49.579Z,78.97
2022-11-25T18:40:17.178Z,77.58
2022-11-25T18:42:46.581Z,77.13
2022-11-25T18:45:16.304Z,77.27
2022-11-25T18:47:43.973Z,76.81
2022-11-25T18:50:14.737Z,77.85
2022-11-25T18:52:44.868Z,77.12
2022-11-25T18:55:13.700Z,76.66
2022-11-25T18:57:42.330Z,76.59
2022-11-25T19:03:02.814Z,76.33
2022-11-25T19:05:35.039Z,76.68
2022-11-25T19:08:02.804Z,76.69
2022-11-25T19:10:32.159Z,76.41
2022-11-25T19:13:03.139Z,76.45
2022-11-25T19:18:50.527Z,76.92
2022-11-25T19:21:21.382Z,77.11
2022-11-25T19:23:49.609Z,76.76
2022-11-25T19:26:20.320Z,76.66
2022-11-25T19:28:50.673Z,76.45
2022-11-25T19:31:22.041Z,76.53
2022-11-25T19:34:05.367Z,76.69
2022-11-25T19:36:38.620Z,76.79
2022-11-25T19:39:11.868Z,76.83
2022-11-25T19:41:40.368Z,76.91
2022-11-25T19:44:08.026Z,76.64
2022-11-25T19:46:52.498Z,77.30
2022-11-25T19:49:24.535Z,77.02
2022-11-25T19:51:52.013Z,77.14
2022-11-25T19:54:23.632Z,76.76
2022-11-25T19:56:51.047Z,76.97
2022-11-25T19:59:19.484Z,77.19
2022-11-25T20:01:47.302Z,77.32
2022-11-25T20:04:19.200Z,77.65
2022-11-25T20:06:47.397Z,78.06
2022-11-25T20:09:15.430Z,79.09
2022-11-25T20:11:44.011Z,78.39
2022-11-25T20:14:15.488Z,77.97
2022-11-25T20:16:43.930Z,77.88
2022-11-25T20:19:14.899Z,78.68
2022-11-25T20:21:43.563Z,78.61
2022-11-25T20:24:13.640Z,78.83
2022-11-25T20:26:46.514Z,80.26
2022-11-25T20:29:16.861Z,79.44
2022-11-25T20:31:44.604Z,80.54
2022-11-25T20:34:12.478Z,80.13
2022-11-25T20:36:43.337Z,79.75
2022-11-25T20:39:16.485Z,80.07
2022-11-25T20:41:44.972Z,79.62
2022-11-25T20:44:14.215Z,79.96
2022-11-25T20:46:42.146Z,80.66
2022-11-25T20:49:20.340Z,80.93
2022-11-25T20:51:51.043Z,80.84
2022-11-25T20:54:18.671Z,80.71
2022-11-25T20:56:46.065Z,80.92
2022-11-25T20:59:19.334Z,81.94
2022-11-25T21:01:46.872Z,82.68
2022-11-25T21:04:14.226Z,82.49
2022-11-25T21:06:41.508Z,82.69
2022-11-25T21:09:15.618Z,82.64
2022-11-25T21:11:42.784Z,82.20
2022-11-25T21:14:13.572Z,82.49
2022-11-25T21:16:41.304Z,82.49
2022-11-25T21:19:08.607Z,82.31
2022-11-25T21:21:37.494Z,82.37
2022-11-25T21:24:15.448Z,82.68
2022-11-25T21:26:42.728Z,82.23
2022-11-25T21:29:14.490Z,82.43
2022-11-25T21:31:42.537Z,82.77
2022-11-25T21:34:11.343Z,83.10
2022-11-25T21:36:39.611Z,83.70
2022-11-25T21:39:08.937Z,83.54
2022-11-25T21:41:36.438Z,83.76
2022-11-25T21:44:18.630Z,83.84
2022-11-25T21:46:46.407Z,84.03
2022-11-25T21:49:14.095Z,84.46
2022-11-25T21:51:44.978Z,84.94
2022-11-25T21:54:15.146Z,84.69
2022-11-25T21:57:24.118Z,84.16
2022-11-25T22:00:05.465Z,84.55
2022-11-25T22:02:35.954Z,85.13
2022-11-25T22:05:22.651Z,85.92
2022-11-25T22:07:50.529Z,85.67
2022-11-25T22:10:40.712Z,85.21
2022-11-25T22:13:20.043Z,85.21
2022-11-25T22:15:47.546Z,85.63
2022-11-25T22:18:20.207Z,86.36
2022-11-25T22:20:54.989Z,86.59
2022-11-25T22:23:30.972Z,86.69
2022-11-25T22:25:58.308Z,87.33
2022-11-25T22:28:27.113Z,87.99
2022-11-25T22:30:56.240Z,87.98
2022-11-25T22:33:27.050Z,87.42
2022-11-25T22:35:54.688Z,87.99
2022-11-25T22:38:24.730Z,87.59
2022-11-25T22:40:54.392Z,87.88
2022-11-25T22:43:26.068Z,87.35
2022-11-25T22:45:55.800Z,88.37
2022-11-25T22:48:33.012Z,88.57
2022-11-25T22:51:04.224Z,88.72
2022-11-25T22:53:34.604Z,87.71
2022-11-25T22:56:05.190Z,87.94
2022-11-25T22:58:32.842Z,88.16
2022-11-25T23:04:23.593Z,88.09
2022-11-25T23:06:56.422Z,88.02
2022-11-25T23:09:23.688Z,88.15
2022-11-25T23:11:51.010Z,88.28
2022-11-25T23:14:29.321Z,87.99
2022-11-25T23:16:56.691Z,88.71
2022-11-25T23:19:30.111Z,88.90
2022-11-25T23:25:19.375Z,88.64
2022-11-25T23:27:47.183Z,88.55
2022-11-25T23:30:16.640Z,88.72
2022-11-25T23:32:57.236Z,88.61
2022-11-25T23:35:31.295Z,88.55
2022-11-25T23:38:24.868Z,89.02
2022-11-25T23:41:00.420Z,88.29
2022-11-25T23:43:27.421Z,87.62
2022-11-25T23:45:56.089Z,87.48
2022-11-25T23:48:32.209Z,87.36
2022-11-25T23:50:59.996Z,87.04
2022-11-25T23:53:30.738Z,87.21
2022-11-25T23:56:00.814Z,87.18
2022-11-25T23:58:27.805Z,87.32
